createdAt,value
2018-09-15T00:00:26.633Z,1006.40
2018-09-15T00:01:26.619Z,1006.39
2018-09-15T00:02:26.610Z,1006.40
2018-09-15T00:03:26.597Z,1006.46
2018-09-15T00:04:26.590Z,1006.42
2018-09-15T00:05:26.577Z,1006.43
2018-09-15T00:06:26.565Z,1006.44
2018-09-15T00:07:26.554Z,1006.41
2018-09-15T00:08:26.550Z,1006.42
2018-09-15T00:09:26.533Z,1006.41
2018-09-15T00:10:26.523Z,1006.48
2018-09-15T00:11:26.512Z,1006.45
2018-09-15T00:12:26.501Z,1006.44
2018-09-15T00:13:26.494Z,1006.40
2018-09-15T00:14:26.479Z,1006.38
2018-09-15T00:15:26.473Z,1006.41
2018-09-15T00:16:26.465Z,1006.41
2018-09-15T00:17:26.446Z,1006.43
2018-09-15T00:18:26.435Z,1006.40
2018-09-15T00:19:26.424Z,1006.36
2018-09-15T00:20:26.413Z,1006.42
2018-09-15T00:21:26.403Z,1006.43
2018-09-15T00:22:26.392Z,1006.44
2018-09-15T00:23:26.383Z,1006.43
2018-09-15T00:24:26.370Z,1006.44
2018-09-15T00:25:26.360Z,1006.44
2018-09-15T00:26:26.348Z,1006.43
2018-09-15T00:27:26.340Z,1006.40
2018-09-15T00:28:26.331Z,1006.40
2018-09-15T00:29:26.315Z,1006.44
2018-09-15T00:30:26.311Z,1006.43
2018-09-15T00:31:26.295Z,1006.44
2018-09-15T00:32:26.281Z,1006.44
2018-09-15T00:33:26.273Z,1006.47
2018-09-15T00:34:26.265Z,1006.45
2018-09-15T00:35:26.252Z,1006.47
2018-09-15T00:36:26.239Z,1006.46
2018-09-15T00:37:26.227Z,1006.48
2018-09-15T00:38:26.215Z,1006.48
2018-09-15T00:39:26.205Z,1006.47
2018-09-15T00:40:26.193Z,1006.48
2018-09-15T00:41:26.183Z,1006.48
2018-09-15T00:42:26.174Z,1006.55
2018-09-15T00:43:26.159Z,1006.55
2018-09-15T00:44:26.150Z,1006.55
2018-09-15T00:45:26.138Z,1006.51
2018-09-15T00:46:26.126Z,1006.50
2018-09-15T00:47:26.118Z,1006.48
2018-09-15T00:48:26.103Z,1006.53
2018-09-15T00:49:26.099Z,1006.52
2018-09-15T00:50:26.086Z,1006.56
2018-09-15T00:51:26.073Z,1006.54
2018-09-15T00:52:26.064Z,1006.52
2018-09-15T00:53:26.052Z,1006.53
2018-09-15T00:54:26.040Z,1006.55
2018-09-15T00:55:26.030Z,1006.53
2018-09-15T00:56:26.020Z,1006.47
2018-09-15T00:57:26.007Z,1006.51
2018-09-15T00:58:26.004Z,1006.51
2018-09-15T00:59:25.986Z,1006.50
2018-09-15T01:00:25.975Z,1006.56
2018-09-15T01:01:25.963Z,1006.54
2018-09-15T01:02:25.956Z,1006.52
2018-09-15T01:03:25.942Z,1006.53
2018-09-15T01:04:25.933Z,1006.53
2018-09-15T01:05:25.918Z,1006.55
2018-09-15T01:06:25.908Z,1006.56
2018-09-15T01:07:25.898Z,1006.55
2018-09-15T01:08:25.888Z,1006.57
2018-09-15T01:09:25.876Z,1006.59
2018-09-15T01:10:25.864Z,1006.55
2018-09-15T01:11:25.856Z,1006.55
2018-09-15T01:12:25.845Z,1006.55
2018-09-15T01:13:25.832Z,1006.58
2018-09-15T01:14:25.898Z,1006.56
2018-09-15T01:15:25.814Z,1006.58
2018-09-15T01:16:25.798Z,1006.58
2018-09-15T01:17:25.788Z,1006.54
2018-09-15T01:18:25.779Z,1006.55
2018-09-15T01:19:25.773Z,1006.59
2018-09-15T01:20:25.756Z,1006.54
2018-09-15T01:21:25.750Z,1006.55
2018-09-15T01:22:25.732Z,1006.57
2018-09-15T01:23:25.723Z,1006.55
2018-09-15T01:24:25.715Z,1006.58
2018-09-15T01:25:25.701Z,1006.60
2018-09-15T01:26:25.689Z,1006.61
2018-09-15T01:27:25.680Z,1006.62
2018-09-15T01:28:25.668Z,1006.60
2018-09-15T01:29:25.660Z,1006.59
2018-09-15T01:30:25.645Z,1006.62
2018-09-15T01:31:25.636Z,1006.64
2018-09-15T01:32:25.624Z,1006.60
2018-09-15T01:33:25.617Z,1006.59
2018-09-15T01:34:25.622Z,1006.62
2018-09-15T01:35:25.593Z,1006.65
2018-09-15T01:36:25.584Z,1006.62
2018-09-15T01:37:25.569Z,1006.62
2018-09-15T01:38:25.559Z,1006.60
2018-09-15T01:39:25.561Z,1006.56
2018-09-15T01:40:25.536Z,1006.56
2018-09-15T01:41:25.527Z,1006.60
2018-09-15T01:42:25.516Z,1006.59
2018-09-15T01:43:25.503Z,1006.61
2018-09-15T01:44:25.494Z,1006.61
2018-09-15T01:45:25.483Z,1006.62
2018-09-15T01:46:25.470Z,1006.62
2018-09-15T01:47:25.463Z,1006.64
2018-09-15T01:48:25.449Z,1006.62
2018-09-15T01:49:25.436Z,1006.63
2018-09-15T01:50:25.429Z,1006.61
2018-09-15T01:51:25.416Z,1006.68
2018-09-15T01:52:25.406Z,1006.66
2018-09-15T01:53:25.395Z,1006.74
2018-09-15T01:54:25.391Z,1006.76
2018-09-15T01:55:25.373Z,1006.75
2018-09-15T01:56:25.364Z,1006.79
2018-09-15T01:57:25.386Z,1006.83
2018-09-15T01:58:25.340Z,1006.81
2018-09-15T01:59:25.337Z,1006.80
2018-09-15T02:00:25.322Z,1006.87
2018-09-15T02:01:25.309Z,1006.89
2018-09-15T02:02:25.297Z,1006.89
2018-09-15T02:03:25.288Z,1006.87
2018-09-15T02:04:25.278Z,1006.90
2018-09-15T02:05:25.264Z,1006.87
2018-09-15T02:06:25.252Z,1006.90
2018-09-15T02:07:25.240Z,1006.91
2018-09-15T02:08:25.230Z,1006.91
2018-09-15T02:09:25.222Z,1006.91
2018-09-15T02:10:25.212Z,1006.91
2018-09-15T02:11:25.199Z,1006.90
2018-09-15T02:12:25.188Z,1006.96
2018-09-15T02:13:25.183Z,1006.91
2018-09-15T02:14:25.168Z,1006.97
2018-09-15T02:15:25.154Z,1006.95
2018-09-15T02:16:25.185Z,1006.97
2018-09-15T02:17:25.134Z,1006.98
2018-09-15T02:18:25.123Z,1006.97
2018-09-15T02:19:25.114Z,1006.93
2018-09-15T02:20:25.104Z,1006.89
2018-09-15T02:21:25.088Z,1006.93
2018-09-15T02:22:25.121Z,1006.91
2018-09-15T02:23:25.067Z,1006.92
2018-09-15T02:24:25.058Z,1006.97
2018-09-15T02:25:25.046Z,1006.89
2018-09-15T02:26:25.033Z,1006.94
2018-09-15T02:27:25.024Z,1006.95
2018-09-15T02:28:25.013Z,1006.95
2018-09-15T02:29:25.003Z,1006.94
2018-09-15T02:30:24.991Z,1006.99
2018-09-15T02:31:24.980Z,1006.98
2018-09-15T02:32:24.969Z,1007.00
2018-09-15T02:33:24.964Z,1006.96
2018-09-15T02:34:24.948Z,1006.96
2018-09-15T02:35:24.939Z,1006.92
2018-09-15T02:36:24.926Z,1006.92
2018-09-15T02:37:24.915Z,1006.98
2018-09-15T02:38:24.905Z,1006.97
2018-09-15T02:39:24.892Z,1006.96
2018-09-15T02:40:24.880Z,1006.96
2018-09-15T02:41:24.869Z,1006.94
2018-09-15T02:42:24.857Z,1006.94
2018-09-15T02:43:24.849Z,1006.96
2018-09-15T02:44:24.836Z,1006.99
2018-09-15T02:45:24.829Z,1006.99
2018-09-15T02:46:24.816Z,1006.97
2018-09-15T02:47:24.804Z,1007.02
2018-09-15T02:48:24.792Z,1007.05
2018-09-15T02:49:24.783Z,1007.02
2018-09-15T02:50:24.771Z,1007.02
2018-09-15T02:51:24.759Z,1007.01
2018-09-15T02:52:24.748Z,1007.04
2018-09-15T02:53:24.738Z,1007.01
2018-09-15T02:54:24.727Z,1007.06
2018-09-15T02:55:24.717Z,1007.05
2018-09-15T02:56:24.705Z,1007.03
2018-09-15T02:57:24.697Z,1007.07
2018-09-15T02:58:24.683Z,1007.03
2018-09-15T02:59:24.676Z,1007.04
2018-09-15T03:00:24.662Z,1007.02
2018-09-15T03:01:24.650Z,1007.03
2018-09-15T03:02:24.639Z,1007.09
2018-09-15T03:03:24.635Z,1007.04
2018-09-15T03:04:24.621Z,1007.08
2018-09-15T03:05:24.606Z,1007.08
2018-09-15T03:06:24.600Z,1007.10
2018-09-15T03:07:24.585Z,1007.11
2018-09-15T03:08:24.577Z,1007.12
2018-09-15T03:09:24.564Z,1007.16
2018-09-15T03:10:24.551Z,1007.13
2018-09-15T03:11:24.543Z,1007.11
2018-09-15T03:12:24.530Z,1007.15
2018-09-15T03:13:24.518Z,1007.13
2018-09-15T03:14:24.510Z,1007.09
2018-09-15T03:15:24.499Z,1007.11
2018-09-15T03:16:24.485Z,1007.15
2018-09-15T03:17:24.476Z,1007.16
2018-09-15T03:18:24.463Z,1007.11
2018-09-15T03:19:24.453Z,1007.12
2018-09-15T03:20:24.442Z,1007.19
2018-09-15T03:21:24.431Z,1007.17
2018-09-15T03:22:24.420Z,1007.17
2018-09-15T03:23:24.408Z,1007.23
2018-09-15T03:24:24.396Z,1007.21
2018-09-15T03:25:24.387Z,1007.23
2018-09-15T03:26:24.374Z,1007.24
2018-09-15T03:27:24.365Z,1007.26
2018-09-15T03:28:24.354Z,1007.26
2018-09-15T03:29:24.343Z,1007.27
2018-09-15T03:30:24.332Z,1007.26
2018-09-15T03:31:24.322Z,1007.26
2018-09-15T03:32:24.313Z,1007.24
2018-09-15T03:33:24.300Z,1007.27
2018-09-15T03:34:24.290Z,1007.28
2018-09-15T03:35:24.277Z,1007.25
2018-09-15T03:36:24.264Z,1007.22
2018-09-15T03:37:24.255Z,1007.25
2018-09-15T03:38:24.244Z,1007.24
2018-09-15T03:39:24.237Z,1007.24
2018-09-15T03:40:24.224Z,1007.27
2018-09-15T03:41:24.224Z,1007.25
2018-09-15T03:42:24.201Z,1007.27
2018-09-15T03:43:24.192Z,1007.30
2018-09-15T03:44:24.178Z,1007.36
2018-09-15T03:45:24.169Z,1007.30
2018-09-15T03:46:24.156Z,1007.30
2018-09-15T03:47:24.146Z,1007.29
2018-09-15T03:48:24.138Z,1007.28
2018-09-15T03:49:24.133Z,1007.33
2018-09-15T03:50:24.111Z,1007.31
2018-09-15T03:51:24.104Z,1007.29
2018-09-15T03:52:24.090Z,1007.30
2018-09-15T03:53:24.079Z,1007.30
2018-09-15T03:54:24.072Z,1007.31
2018-09-15T03:55:24.057Z,1007.31
2018-09-15T03:56:24.055Z,1007.25
2018-09-15T03:57:24.035Z,1007.26
2018-09-15T03:58:24.025Z,1007.23
2018-09-15T03:59:24.013Z,1007.30
2018-09-15T04:00:24.001Z,1007.28
2018-09-15T04:01:23.990Z,1007.31
2018-09-15T04:02:23.978Z,1007.30
2018-09-15T04:03:23.973Z,1007.33
2018-09-15T04:04:23.959Z,1007.37
2018-09-15T04:05:23.949Z,1007.38
2018-09-15T04:06:23.938Z,1007.36
2018-09-15T04:07:23.925Z,1007.38
2018-09-15T04:08:23.913Z,1007.35
2018-09-15T04:09:23.903Z,1007.29
2018-09-15T04:10:23.967Z,1007.35
2018-09-15T04:11:23.882Z,1007.33
2018-09-15T04:12:23.871Z,1007.38
2018-09-15T04:13:23.858Z,1007.37
2018-09-15T04:14:23.846Z,1007.38
2018-09-15T04:15:23.835Z,1007.39
2018-09-15T04:16:23.825Z,1007.36
2018-09-15T04:17:23.816Z,1007.38
2018-09-15T04:18:23.801Z,1007.37
2018-09-15T04:19:23.796Z,1007.38
2018-09-15T04:20:23.779Z,1007.37
2018-09-15T04:21:23.769Z,1007.31
2018-09-15T04:22:23.762Z,1007.36
2018-09-15T04:23:23.747Z,1007.38
2018-09-15T04:24:23.740Z,1007.40
2018-09-15T04:25:23.726Z,1007.38
2018-09-15T04:26:23.714Z,1007.41
2018-09-15T04:27:23.708Z,1007.39
2018-09-15T04:28:23.698Z,1007.40
2018-09-15T04:29:23.684Z,1007.40
2018-09-15T04:30:23.670Z,1007.46
2018-09-15T04:31:23.658Z,1007.46
2018-09-15T04:32:23.652Z,1007.47
2018-09-15T04:33:23.639Z,1007.46
2018-09-15T04:34:23.628Z,1007.50
2018-09-15T04:35:23.621Z,1007.45
2018-09-15T04:36:23.607Z,1007.50
2018-09-15T04:37:23.593Z,1007.47
2018-09-15T04:38:23.582Z,1007.45
2018-09-15T04:39:23.573Z,1007.46
2018-09-15T04:40:23.560Z,1007.53
2018-09-15T04:41:23.549Z,1007.48
2018-09-15T04:42:23.537Z,1007.49
2018-09-15T04:43:23.528Z,1007.48
2018-09-15T04:44:23.518Z,1007.48
2018-09-15T04:45:23.509Z,1007.46
2018-09-15T04:46:23.494Z,1007.58
2018-09-15T04:47:23.483Z,1007.53
2018-09-15T04:48:23.472Z,1007.51
2018-09-15T04:49:23.461Z,1007.54
2018-09-15T04:50:23.455Z,1007.55
2018-09-15T04:51:23.439Z,1007.59
2018-09-15T04:52:23.427Z,1007.58
2018-09-15T04:53:23.418Z,1007.61
2018-09-15T04:54:23.411Z,1007.65
2018-09-15T04:55:23.396Z,1007.64
2018-09-15T04:56:23.387Z,1007.70
2018-09-15T04:57:23.375Z,1007.72
2018-09-15T04:58:23.364Z,1007.67
2018-09-15T04:59:23.353Z,1007.71
2018-09-15T05:00:23.349Z,1007.74
2018-09-15T05:01:23.328Z,1007.74
2018-09-15T05:02:23.318Z,1007.77
2018-09-15T05:03:23.306Z,1007.77
2018-09-15T05:04:23.298Z,1007.76
2018-09-15T05:05:23.285Z,1007.75
2018-09-15T05:06:23.292Z,1007.76
2018-09-15T05:07:23.263Z,1007.77
2018-09-15T05:08:23.254Z,1007.78
2018-09-15T05:09:23.241Z,1007.80
2018-09-15T05:10:23.232Z,1007.83
2018-09-15T05:11:23.232Z,1007.82
2018-09-15T05:12:23.253Z,1007.90
2018-09-15T05:13:23.200Z,1007.90
2018-09-15T05:14:23.188Z,1007.90
2018-09-15T05:15:23.179Z,1007.92
2018-09-15T05:16:23.165Z,1007.94
2018-09-15T05:17:23.155Z,1007.87
2018-09-15T05:18:23.150Z,1007.89
2018-09-15T05:19:23.133Z,1007.88
2018-09-15T05:20:23.122Z,1007.85
2018-09-15T05:21:23.111Z,1007.87
2018-09-15T05:22:23.099Z,1007.89
2018-09-15T05:23:23.087Z,1007.93
2018-09-15T05:24:23.087Z,1007.93
2018-09-15T05:25:23.066Z,1007.94
2018-09-15T05:26:23.060Z,1007.93
2018-09-15T05:27:23.046Z,1007.90
2018-09-15T05:28:23.032Z,1007.94
2018-09-15T05:29:23.025Z,1007.94
2018-09-15T05:30:23.011Z,1007.94
2018-09-15T05:31:23.007Z,1007.88
2018-09-15T05:32:22.990Z,1007.94
2018-09-15T05:33:22.981Z,1007.93
2018-09-15T05:34:22.967Z,1007.96
2018-09-15T05:35:22.958Z,1007.99
2018-09-15T05:36:22.945Z,1007.97
2018-09-15T05:37:22.935Z,1008.01
2018-09-15T05:38:22.925Z,1007.95
2018-09-15T05:39:22.913Z,1007.98
2018-09-15T05:40:22.906Z,1008.00
2018-09-15T05:41:22.893Z,1008.01
2018-09-15T05:42:22.881Z,1008.03
2018-09-15T05:43:22.869Z,1008.04
2018-09-15T05:44:22.857Z,1008.08
2018-09-15T05:45:22.847Z,1008.06
2018-09-15T05:46:22.837Z,1008.09
2018-09-15T05:47:22.824Z,1008.13
2018-09-15T05:48:22.813Z,1008.14
2018-09-15T05:49:22.807Z,1008.14
2018-09-15T05:50:22.791Z,1008.15
2018-09-15T05:51:22.779Z,1008.10
2018-09-15T05:52:22.776Z,1008.11
2018-09-15T05:53:22.762Z,1008.12
2018-09-15T05:54:22.747Z,1008.16
2018-09-15T05:55:22.736Z,1008.10
2018-09-15T05:56:22.728Z,1008.10
2018-09-15T05:57:22.721Z,1008.12
2018-09-15T05:58:22.709Z,1008.20
2018-09-15T05:59:22.695Z,1008.24
2018-09-15T06:00:22.727Z,1008.25
2018-09-15T06:01:22.670Z,1008.25
2018-09-15T06:02:22.660Z,1008.23
2018-09-15T06:03:22.651Z,1008.27
2018-09-15T06:04:22.639Z,1008.16
2018-09-15T06:05:22.627Z,1008.18
2018-09-15T06:06:22.618Z,1008.19
2018-09-15T06:07:22.608Z,1008.23
2018-09-15T06:08:22.596Z,1008.25
2018-09-15T06:09:22.584Z,1008.25
2018-09-15T06:10:22.571Z,1008.25
2018-09-15T06:11:22.567Z,1008.30
2018-09-15T06:12:22.558Z,1008.29
2018-09-15T06:13:22.543Z,1008.28
2018-09-15T06:14:22.533Z,1008.27
2018-09-15T06:15:22.522Z,1008.28
2018-09-15T06:16:22.508Z,1008.26
2018-09-15T06:17:22.498Z,1008.30
2018-09-15T06:18:22.487Z,1008.27
2018-09-15T06:19:22.474Z,1008.28
2018-09-15T06:20:22.469Z,1008.27
2018-09-15T06:21:22.453Z,1008.29
2018-09-15T06:22:22.444Z,1008.33
2018-09-15T06:23:22.438Z,1008.32
2018-09-15T06:24:22.421Z,1008.32
2018-09-15T06:25:22.417Z,1008.36
2018-09-15T06:26:22.401Z,1008.28
2018-09-15T06:27:22.392Z,1008.28
2018-09-15T06:28:22.379Z,1008.34
2018-09-15T06:29:22.372Z,1008.31
2018-09-15T06:30:22.357Z,1008.30
2018-09-15T06:31:22.345Z,1008.28
2018-09-15T06:32:22.338Z,1008.31
2018-09-15T06:33:22.325Z,1008.35
2018-09-15T06:34:22.314Z,1008.33
2018-09-15T06:35:22.305Z,1008.35
2018-09-15T06:36:22.370Z,1008.34
2018-09-15T06:37:22.278Z,1008.37
2018-09-15T06:38:22.269Z,1008.34
2018-09-15T06:39:22.295Z,1008.34
2018-09-15T06:40:22.249Z,1008.32
2018-09-15T06:41:22.235Z,1008.32
2018-09-15T06:42:22.227Z,1008.34
2018-09-15T06:43:22.217Z,1008.35
2018-09-15T06:44:22.204Z,1008.35
2018-09-15T06:45:22.232Z,1008.34
2018-09-15T06:46:22.182Z,1008.35
2018-09-15T06:47:22.174Z,1008.33
2018-09-15T06:48:22.161Z,1008.40
2018-09-15T06:49:22.151Z,1008.42
2018-09-15T06:50:22.139Z,1008.47
2018-09-15T06:51:22.149Z,1008.41
2018-09-15T06:52:22.115Z,1008.46
2018-09-15T06:53:22.104Z,1008.52
2018-09-15T06:54:22.110Z,1008.46
2018-09-15T06:55:22.084Z,1008.45
2018-09-15T06:56:22.071Z,1008.43
2018-09-15T06:57:22.061Z,1008.40
2018-09-15T06:58:22.053Z,1008.46
2018-09-15T06:59:22.042Z,1008.46
2018-09-15T07:00:22.027Z,1008.47
2018-09-15T07:01:22.021Z,1008.45
2018-09-15T07:02:22.009Z,1008.41
2018-09-15T07:03:21.997Z,1008.40
2018-09-15T07:04:21.989Z,1008.43
2018-09-15T07:05:21.979Z,1008.43
2018-09-15T07:06:21.962Z,1008.39
2018-09-15T07:07:21.951Z,1008.42
2018-09-15T07:08:21.949Z,1008.47
2018-09-15T07:09:21.936Z,1008.56
2018-09-15T07:10:21.920Z,1008.53
2018-09-15T07:11:21.912Z,1008.53
2018-09-15T07:12:21.895Z,1008.52
2018-09-15T07:13:21.887Z,1008.55
2018-09-15T07:14:21.878Z,1008.52
2018-09-15T07:15:21.870Z,1008.50
2018-09-15T07:16:21.854Z,1008.53
2018-09-15T07:17:21.843Z,1008.54
2018-09-15T07:18:21.832Z,1008.58
2018-09-15T07:19:21.820Z,1008.61
2018-09-15T07:20:21.813Z,1008.60
2018-09-15T07:21:21.798Z,1008.64
2018-09-15T07:22:21.788Z,1008.65
2018-09-15T07:23:21.775Z,1008.63
2018-09-15T07:24:21.770Z,1008.65
2018-09-15T07:25:21.759Z,1008.69
2018-09-15T07:26:21.745Z,1008.72
2018-09-15T07:27:21.732Z,1008.73
2018-09-15T07:28:21.722Z,1008.73
2018-09-15T07:29:21.708Z,1008.70
2018-09-15T07:30:21.703Z,1008.73
2018-09-15T07:31:21.715Z,1008.74
2018-09-15T07:32:21.676Z,1008.76
2018-09-15T07:33:21.665Z,1008.77
2018-09-15T07:34:21.660Z,1008.79
2018-09-15T07:35:21.645Z,1008.76
2018-09-15T07:36:21.632Z,1008.78
2018-09-15T07:37:21.624Z,1008.79
2018-09-15T07:38:21.611Z,1008.73
2018-09-15T07:39:21.601Z,1008.71
2018-09-15T07:40:21.591Z,1008.74
2018-09-15T07:41:21.579Z,1008.79
2018-09-15T07:42:21.569Z,1008.76
2018-09-15T07:43:21.556Z,1008.78
2018-09-15T07:44:21.547Z,1008.75
2018-09-15T07:45:21.536Z,1008.70
2018-09-15T07:46:21.529Z,1008.76
2018-09-15T07:47:21.515Z,1008.79
2018-09-15T07:48:21.502Z,1008.79
2018-09-15T07:49:21.494Z,1008.78
2018-09-15T07:50:21.483Z,1008.76
2018-09-15T07:51:21.470Z,1008.82
2018-09-15T07:52:21.459Z,1008.83
2018-09-15T07:53:21.447Z,1008.84
2018-09-15T07:54:21.436Z,1008.84
2018-09-15T07:55:21.426Z,1008.88
2018-09-15T07:56:21.416Z,1008.92
2018-09-15T07:57:21.426Z,1008.89
2018-09-15T07:58:21.393Z,1008.95
2018-09-15T07:59:21.380Z,1008.89
2018-09-15T08:00:21.375Z,1008.90
2018-09-15T08:01:21.360Z,1008.90
2018-09-15T08:02:21.353Z,1008.92
2018-09-15T08:03:21.336Z,1008.90
2018-09-15T08:04:21.330Z,1008.90
2018-09-15T08:05:21.318Z,1008.88
2018-09-15T08:06:21.307Z,1008.97
2018-09-15T08:07:21.297Z,1008.92
2018-09-15T08:08:21.285Z,1008.94
2018-09-15T08:09:21.274Z,1008.93
2018-09-15T08:10:21.260Z,1008.92
2018-09-15T08:11:21.250Z,1008.92
2018-09-15T08:12:21.240Z,1008.88
2018-09-15T08:13:21.228Z,1008.93
2018-09-15T08:14:21.217Z,1008.94
2018-09-15T08:15:21.205Z,1008.96
2018-09-15T08:16:21.196Z,1008.94
2018-09-15T08:17:21.184Z,1008.98
2018-09-15T08:18:21.174Z,1008.95
2018-09-15T08:19:21.163Z,1008.91
2018-09-15T08:20:21.151Z,1008.91
2018-09-15T08:21:21.143Z,1008.91
2018-09-15T08:22:21.130Z,1008.89
2018-09-15T08:23:21.119Z,1008.85
2018-09-15T08:24:21.107Z,1008.89
2018-09-15T08:25:21.097Z,1008.85
2018-09-15T08:26:21.169Z,1008.93
2018-09-15T08:27:21.075Z,1008.93
2018-09-15T08:28:21.065Z,1008.90
2018-09-15T08:29:21.053Z,1008.96
2018-09-15T08:30:21.042Z,1008.97
2018-09-15T08:31:21.028Z,1009.00
2018-09-15T08:32:21.020Z,1008.95
2018-09-15T08:33:21.007Z,1008.98
2018-09-15T08:34:20.999Z,1008.99
2018-09-15T08:35:20.987Z,1008.98
2018-09-15T08:36:20.978Z,1009.03
2018-09-15T08:37:20.965Z,1009.04
2018-09-15T08:38:20.976Z,1009.05
2018-09-15T08:39:20.945Z,1009.05
2018-09-15T08:40:20.931Z,1009.09
2018-09-15T08:41:21.038Z,1009.10
2018-09-15T08:42:20.908Z,1009.04
2018-09-15T08:43:20.900Z,1009.13
2018-09-15T08:44:20.892Z,1009.16
2018-09-15T08:45:20.876Z,1009.11
2018-09-15T08:46:20.868Z,1009.14
2018-09-15T08:47:20.854Z,1009.06
2018-09-15T08:48:20.864Z,1009.10
2018-09-15T08:49:20.835Z,1009.10
2018-09-15T08:50:20.821Z,1009.13
2018-09-15T08:51:20.812Z,1009.17
2018-09-15T08:52:20.801Z,1009.12
2018-09-15T08:53:20.790Z,1009.22
2018-09-15T08:54:20.780Z,1009.18
2018-09-15T08:55:20.766Z,1009.17
2018-09-15T08:56:20.759Z,1009.16
2018-09-15T08:57:20.747Z,1009.13
2018-09-15T08:58:20.734Z,1009.19
2018-09-15T08:59:20.725Z,1009.15
2018-09-15T09:00:20.712Z,1009.13
2018-09-15T09:01:20.704Z,1009.15
2018-09-15T09:02:20.697Z,1009.10
2018-09-15T09:03:20.686Z,1009.15
2018-09-15T09:04:20.669Z,1009.13
2018-09-15T09:05:20.659Z,1009.18
2018-09-15T09:06:20.648Z,1009.15
2018-09-15T09:07:20.641Z,1009.09
2018-09-15T09:08:20.628Z,1009.09
2018-09-15T09:09:20.615Z,1009.10
2018-09-15T09:10:20.640Z,1009.11
2018-09-15T09:11:20.595Z,1009.05
2018-09-15T09:12:20.582Z,1009.11
2018-09-15T09:13:20.572Z,1009.06
2018-09-15T09:14:20.566Z,1009.15
2018-09-15T09:15:20.548Z,1009.17
2018-09-15T09:16:20.537Z,1009.16
2018-09-15T09:17:20.526Z,1009.19
2018-09-15T09:18:20.516Z,1009.26
2018-09-15T09:19:20.504Z,1009.27
2018-09-15T09:20:20.495Z,1009.29
2018-09-15T09:21:20.481Z,1009.25
2018-09-15T09:22:20.621Z,1009.23
2018-09-15T09:23:20.463Z,1009.21
2018-09-15T09:24:20.450Z,1009.22
2018-09-15T09:25:20.439Z,1009.25
2018-09-15T09:26:20.571Z,1009.23
2018-09-15T09:27:20.422Z,1009.23
2018-09-15T09:28:20.408Z,1009.17
2018-09-15T09:29:20.395Z,1009.19
2018-09-15T09:30:20.388Z,1009.19
2018-09-15T09:31:20.372Z,1009.20
2018-09-15T09:32:20.380Z,1009.17
2018-09-15T09:33:20.368Z,1009.18
2018-09-15T09:34:20.339Z,1009.23
2018-09-15T09:35:20.330Z,1009.20
2018-09-15T09:36:20.317Z,1009.10
2018-09-15T09:37:20.307Z,1009.16
2018-09-15T09:38:20.367Z,1009.10
2018-09-15T09:39:20.287Z,1009.13
2018-09-15T09:40:20.275Z,1009.19
2018-09-15T09:41:20.301Z,1009.21
2018-09-15T09:42:20.250Z,1009.19
2018-09-15T09:43:20.253Z,1009.20
2018-09-15T09:44:20.231Z,1009.24
2018-09-15T09:45:20.221Z,1009.25
2018-09-15T09:46:20.209Z,1009.18
2018-09-15T09:47:20.200Z,1009.20
2018-09-15T09:48:20.258Z,1009.19
2018-09-15T09:49:20.177Z,1009.23
2018-09-15T09:50:20.165Z,1009.16
2018-09-15T09:51:20.153Z,1009.17
2018-09-15T09:52:20.150Z,1009.13
2018-09-15T09:53:20.132Z,1009.15
2018-09-15T09:54:20.121Z,1009.20
2018-09-15T09:55:20.114Z,1009.15
2018-09-15T09:56:20.099Z,1009.17
2018-09-15T09:57:20.089Z,1009.25
2018-09-15T09:58:20.081Z,1009.21
2018-09-15T09:59:20.068Z,1009.23
2018-09-15T10:00:20.057Z,1009.30
2018-09-15T10:01:20.067Z,1009.30
2018-09-15T10:02:20.031Z,1009.27
2018-09-15T10:03:20.022Z,1009.28
2018-09-15T10:04:20.009Z,1009.33
2018-09-15T10:05:20.014Z,1009.30
2018-09-15T10:06:19.988Z,1009.31
2018-09-15T10:07:19.978Z,1009.33
2018-09-15T10:08:19.967Z,1009.31
2018-09-15T10:09:19.957Z,1009.31
2018-09-15T10:10:19.944Z,1009.34
2018-09-15T10:11:19.933Z,1009.33
2018-09-15T10:12:19.922Z,1009.33
2018-09-15T10:13:19.914Z,1009.28
2018-09-15T10:14:19.902Z,1009.31
2018-09-15T10:15:19.889Z,1009.33
2018-09-15T10:16:19.927Z,1009.32
2018-09-15T10:17:19.867Z,1009.36
2018-09-15T10:18:19.856Z,1009.38
2018-09-15T10:19:19.847Z,1009.36
2018-09-15T10:20:19.835Z,1009.35
2018-09-15T10:21:19.824Z,1009.36
2018-09-15T10:22:19.813Z,1009.41
2018-09-15T10:23:19.803Z,1009.31
2018-09-15T10:24:19.813Z,1009.27
2018-09-15T10:25:19.784Z,1009.28
2018-09-15T10:26:19.772Z,1009.26
2018-09-15T10:27:19.758Z,1009.26
2018-09-15T10:28:19.750Z,1009.27
2018-09-15T10:29:19.737Z,1009.25
2018-09-15T10:30:19.726Z,1009.24
2018-09-15T10:31:19.713Z,1009.22
2018-09-15T10:32:19.705Z,1009.25
2018-09-15T10:33:19.694Z,1009.25
2018-09-15T10:34:19.681Z,1009.20
2018-09-15T10:35:19.668Z,1009.20
2018-09-15T10:36:19.661Z,1009.19
2018-09-15T10:37:19.648Z,1009.20
2018-09-15T10:38:19.641Z,1009.19
2018-09-15T10:39:19.625Z,1009.18
2018-09-15T10:40:19.678Z,1009.19
2018-09-15T10:41:19.603Z,1009.21
2018-09-15T10:42:19.594Z,1009.15
2018-09-15T10:43:19.580Z,1009.19
2018-09-15T10:44:19.573Z,1009.21
2018-09-15T10:45:19.561Z,1009.21
2018-09-15T10:46:19.548Z,1009.17
2018-09-15T10:47:19.541Z,1009.21
2018-09-15T10:48:19.528Z,1009.20
2018-09-15T10:49:19.516Z,1009.20
2018-09-15T10:50:19.505Z,1009.23
2018-09-15T10:51:19.496Z,1009.21
2018-09-15T10:52:19.526Z,1009.24
2018-09-15T10:53:19.476Z,1009.27
2018-09-15T10:54:19.461Z,1009.28
2018-09-15T10:55:19.457Z,1009.24
2018-09-15T10:56:19.443Z,1009.25
2018-09-15T10:57:19.429Z,1009.23
2018-09-15T10:58:19.467Z,1009.23
2018-09-15T10:59:19.404Z,1009.21
2018-09-15T11:00:19.437Z,1009.22
2018-09-15T11:01:19.386Z,1009.24
2018-09-15T11:02:19.373Z,1009.26
2018-09-15T11:03:19.363Z,1009.22
2018-09-15T11:04:19.351Z,1009.27
2018-09-15T11:05:19.342Z,1009.31
2018-09-15T11:06:19.329Z,1009.28
2018-09-15T11:07:19.317Z,1009.26
2018-09-15T11:08:19.308Z,1009.21
2018-09-15T11:09:19.301Z,1009.23
2018-09-15T11:10:19.289Z,1009.25
2018-09-15T11:11:19.274Z,1009.24
2018-09-15T11:12:19.262Z,1009.21
2018-09-15T11:13:19.342Z,1009.19
2018-09-15T11:14:19.242Z,1009.22
2018-09-15T11:15:19.231Z,1009.17
2018-09-15T11:16:19.221Z,1009.15
2018-09-15T11:17:19.211Z,1009.17
2018-09-15T11:18:19.199Z,1009.15
2018-09-15T11:19:19.185Z,1009.13
2018-09-15T11:20:19.181Z,1009.16
2018-09-15T11:21:19.166Z,1009.15
2018-09-15T11:22:19.155Z,1009.08
2018-09-15T11:23:19.141Z,1009.06
2018-09-15T11:24:19.132Z,1009.08
2018-09-15T11:25:19.120Z,1009.01
2018-09-15T11:26:19.109Z,1009.04
2018-09-15T11:27:19.100Z,1009.09
2018-09-15T11:28:19.087Z,1009.07
2018-09-15T11:29:19.080Z,1009.10
2018-09-15T11:30:19.065Z,1009.11
2018-09-15T11:31:19.056Z,1009.15
2018-09-15T11:32:19.045Z,1009.15
2018-09-15T11:33:19.035Z,1009.17
2018-09-15T11:34:19.022Z,1009.21
2018-09-15T11:35:19.015Z,1009.22
2018-09-15T11:36:19.000Z,1009.21
2018-09-15T11:37:18.991Z,1009.25
2018-09-15T11:38:18.978Z,1009.24
2018-09-15T11:39:18.971Z,1009.24
2018-09-15T11:40:18.957Z,1009.22
2018-09-15T11:41:19.048Z,1009.21
2018-09-15T11:42:18.935Z,1009.22
2018-09-15T11:43:18.925Z,1009.19
2018-09-15T11:44:18.912Z,1009.20
2018-09-15T11:45:18.903Z,1009.22
2018-09-15T11:46:18.891Z,1009.21
2018-09-15T11:47:18.879Z,1009.25
2018-09-15T11:48:18.867Z,1009.21
2018-09-15T11:49:18.862Z,1009.23
2018-09-15T11:50:18.848Z,1009.24
2018-09-15T11:51:18.841Z,1009.23
2018-09-15T11:52:18.827Z,1009.23
2018-09-15T11:53:18.813Z,1009.26
2018-09-15T11:54:18.802Z,1009.28
2018-09-15T11:55:18.791Z,1009.23
2018-09-15T11:56:18.782Z,1009.20
2018-09-15T11:57:18.773Z,1009.10
2018-09-15T11:58:18.757Z,1009.11
2018-09-15T11:59:18.748Z,1009.12
2018-09-15T12:00:18.742Z,1009.13
2018-09-15T12:01:18.732Z,1009.11
2018-09-15T12:02:18.717Z,1009.11
2018-09-15T12:03:18.706Z,1009.09
2018-09-15T12:04:18.693Z,1009.10
2018-09-15T12:05:18.680Z,1009.06